createdAt,value
2018-11-03T00:01:30.981Z,101398.16
2018-11-03T00:03:58.415Z,101405.85
2018-11-03T00:06:25.846Z,101407.14
2018-11-03T00:08:53.370Z,101399.50
2018-11-03T00:11:20.854Z,101400.61
2018-11-03T00:13:48.505Z,101398.68
2018-11-03T00:16:16.225Z,101400.84
2018-11-03T00:18:43.657Z,101394.80
2018-11-03T00:21:11.195Z,101399.32
2018-11-03T00:23:38.634Z,101398.80
2018-11-03T00:26:06.233Z,101401.56
2018-11-03T00:28:33.669Z,101406.74
2018-11-03T00:31:01.274Z,101408.67
2018-11-03T00:33:28.734Z,101404.55
2018-11-03T00:35:56.169Z,101410.28
2018-11-03T00:38:23.697Z,101408.05
2018-11-03T00:40:51.155Z,101402.63
2018-11-03T00:43:18.595Z,101402.52
2018-11-03T00:45:46.109Z,101402.93
2018-11-03T00:48:13.575Z,101403.86
2018-11-03T00:50:41.249Z,101404.59
2018-11-03T00:53:08.672Z,101407.63
2018-11-03T00:55:36.111Z,101405.27
2018-11-03T00:58:03.546Z,101395.54
2018-11-03T01:00:30.977Z,101397.78
2018-11-03T01:02:58.414Z,101403.38
2018-11-03T01:05:25.855Z,101400.16
2018-11-03T01:07:53.399Z,101389.39
2018-11-03T01:10:20.831Z,101392.21
2018-11-03T01:12:48.277Z,101400.84
2018-11-03T01:15:16.757Z,101392.66
2018-11-03T01:17:44.429Z,101401.63
2018-11-03T01:20:13.234Z,101400.13
2018-11-03T01:22:40.674Z,101413.68
2018-11-03T01:25:08.691Z,101408.00
2018-11-03T01:27:36.131Z,101407.78
2018-11-03T01:30:03.702Z,101400.29
2018-11-03T01:32:31.188Z,101399.25
2018-11-03T01:34:58.600Z,101401.44
2018-11-03T01:37:26.037Z,101397.51
2018-11-03T01:39:53.489Z,101397.06
2018-11-03T01:42:20.942Z,101392.31
2018-11-03T01:44:48.393Z,101385.86
2018-11-03T01:47:15.821Z,101382.73
2018-11-03T01:49:43.258Z,101386.81
2018-11-03T01:52:10.717Z,101383.04
2018-11-03T01:54:38.141Z,101384.48
2018-11-03T01:57:05.585Z,101383.03
2018-11-03T01:59:33.039Z,101393.36
2018-11-03T02:02:00.471Z,101391.33
2018-11-03T02:04:27.902Z,101385.06
2018-11-03T02:06:55.342Z,101376.44
2018-11-03T02:09:22.810Z,101377.48
2018-11-03T02:11:50.274Z,101385.53
2018-11-03T02:14:17.713Z,101381.91
2018-11-03T02:16:45.146Z,101390.69
2018-11-03T02:19:12.598Z,101389.33
2018-11-03T02:21:40.065Z,101382.54
2018-11-03T02:24:07.629Z,101382.29
2018-11-03T02:26:35.118Z,101382.94
2018-11-03T02:29:02.756Z,101385.61
2018-11-03T02:31:30.190Z,101384.47
2018-11-03T02:33:57.657Z,101379.25
2018-11-03T02:36:25.258Z,101379.14
2018-11-03T02:38:52.789Z,101376.41
2018-11-03T02:41:20.446Z,101382.62
2018-11-03T02:43:47.893Z,101381.62
2018-11-03T02:46:15.466Z,101390.17
2018-11-03T02:48:42.956Z,101391.12
2018-11-03T02:51:10.447Z,101392.66
2018-11-03T02:53:37.857Z,101394.99
2018-11-03T02:56:05.715Z,101399.37
2018-11-03T02:58:33.175Z,101397.67
2018-11-03T03:01:00.597Z,101410.30
2018-11-03T03:03:28.053Z,101407.49
2018-11-03T03:05:55.488Z,101413.08
2018-11-03T03:08:22.926Z,101416.11
2018-11-03T03:10:50.378Z,101415.81
2018-11-03T03:13:17.838Z,101417.76
2018-11-03T03:15:45.419Z,101414.39
2018-11-03T03:18:12.896Z,101408.73
2018-11-03T03:20:40.792Z,101418.72
2018-11-03T03:23:08.240Z,101428.34
2018-11-03T03:25:36.023Z,101431.38
2018-11-03T03:28:03.462Z,101432.27
2018-11-03T03:30:30.902Z,101429.59
2018-11-03T03:32:58.357Z,101434.79
2018-11-03T03:35:25.803Z,101434.66
2018-11-03T03:37:53.270Z,101436.70
2018-11-03T03:40:20.722Z,101445.09
2018-11-03T03:42:48.165Z,101445.52
2018-11-03T03:45:15.599Z,101448.89
2018-11-03T03:47:43.043Z,101457.66
2018-11-03T03:50:11.125Z,101455.94
2018-11-03T03:52:38.837Z,101458.52
2018-11-03T03:55:06.294Z,101459.16
2018-11-03T03:57:33.785Z,101452.44
2018-11-03T04:00:01.217Z,101454.52
2018-11-03T04:02:28.651Z,101456.33
2018-11-03T04:04:56.096Z,101461.39
2018-11-03T04:07:23.587Z,101465.86
2018-11-03T04:09:51.151Z,101470.95
2018-11-03T04:12:18.593Z,101465.62
2018-11-03T04:14:46.040Z,101465.59
2018-11-03T04:17:13.590Z,101465.99
2018-11-03T04:19:41.037Z,101473.70
2018-11-03T04:22:08.965Z,101482.78
2018-11-03T04:24:36.495Z,101480.01
2018-11-03T04:27:03.977Z,101466.02
2018-11-03T04:29:31.420Z,101468.54
2018-11-03T04:31:59.125Z,101477.46
2018-11-03T04:34:26.558Z,101471.55
2018-11-03T04:36:53.997Z,101474.81
2018-11-03T04:39:21.434Z,101478.94
2018-11-03T04:41:48.983Z,101484.40
2018-11-03T04:44:16.435Z,101486.16
2018-11-03T04:46:44.114Z,101483.91
2018-11-03T04:49:11.605Z,101486.73
2018-11-03T04:51:39.125Z,101492.16
2018-11-03T04:54:06.554Z,101493.40
2018-11-03T04:56:34.032Z,101498.55
2018-11-03T04:59:01.468Z,101501.20
2018-11-03T05:01:29.050Z,101499.67
2018-11-03T05:03:56.514Z,101501.77
2018-11-03T05:06:23.972Z,101514.89
2018-11-03T05:08:51.431Z,101521.67
2018-11-03T05:11:18.950Z,101515.95
2018-11-03T05:13:46.382Z,101524.19
2018-11-03T05:16:13.814Z,101512.04
2018-11-03T05:18:41.609Z,101508.98
2018-11-03T05:21:09.095Z,101511.17
2018-11-03T05:23:36.565Z,101518.72
2018-11-03T05:26:04.013Z,101521.54
2018-11-03T05:28:31.489Z,101526.83
2018-11-03T05:30:58.963Z,101525.67
2018-11-03T05:33:26.378Z,101529.84
2018-11-03T05:35:53.809Z,101532.42
2018-11-03T05:38:21.248Z,101538.91
2018-11-03T05:40:48.678Z,101543.86
2018-11-03T05:43:16.130Z,101552.80
2018-11-03T05:45:43.617Z,101550.71
2018-11-03T05:48:11.109Z,101543.90
2018-11-03T05:50:38.550Z,101542.61
2018-11-03T05:53:05.993Z,101529.55
2018-11-03T05:55:33.422Z,101529.02
2018-11-03T05:58:00.855Z,101529.98
2018-11-03T06:00:29.271Z,101528.72
2018-11-03T06:02:58.009Z,101531.52
2018-11-03T06:05:25.494Z,101529.91
2018-11-03T06:07:53.030Z,101530.07
2018-11-03T06:10:20.466Z,101522.50
2018-11-03T06:12:47.894Z,101518.40
2018-11-03T06:15:15.443Z,101527.42
2018-11-03T06:17:42.925Z,101530.13
2018-11-03T06:20:10.350Z,101524.27
2018-11-03T06:22:37.995Z,101527.14
2018-11-03T06:25:05.263Z,101523.56
2018-11-03T06:27:32.695Z,101530.50
2018-11-03T06:30:00.182Z,101534.38
2018-11-03T06:32:27.626Z,101539.00
2018-11-03T06:34:55.061Z,101538.24
2018-11-03T06:37:22.570Z,101542.94
2018-11-03T06:39:50.114Z,101545.13
2018-11-03T06:42:17.597Z,101557.25
2018-11-03T06:44:45.129Z,101546.64
2018-11-03T06:47:12.605Z,101549.06
2018-11-03T06:49:40.027Z,101544.06
2018-11-03T06:52:07.505Z,101550.58
2018-11-03T06:54:34.902Z,101559.89
2018-11-03T06:57:02.402Z,101558.44
2018-11-03T06:59:29.936Z,101557.98
2018-11-03T07:01:57.369Z,101562.34
2018-11-03T07:04:24.806Z,101553.72
2018-11-03T07:06:52.250Z,101566.45
2018-11-03T07:09:19.681Z,101571.64
2018-11-03T07:11:47.201Z,101569.39
2018-11-03T07:14:14.539Z,101585.84
2018-11-03T07:16:42.727Z,101583.19
2018-11-03T07:19:10.210Z,101580.67
2018-11-03T07:21:37.708Z,101581.14
2018-11-03T07:24:05.080Z,101586.60
2018-11-03T07:26:32.513Z,101585.55
2018-11-03T07:29:00.102Z,101581.17
2018-11-03T07:31:27.620Z,101583.09
2018-11-03T07:33:55.138Z,101572.24
2018-11-03T07:36:22.657Z,101574.66
2018-11-03T07:38:50.097Z,101576.14
2018-11-03T07:41:17.623Z,101569.92
2018-11-03T07:43:45.024Z,101572.97
2018-11-03T07:46:12.458Z,101563.66
2018-11-03T07:48:39.973Z,101568.05
2018-11-03T07:51:07.366Z,101566.75
2018-11-03T07:53:34.862Z,101571.43
2018-11-03T07:56:02.323Z,101568.70
2018-11-03T07:58:29.765Z,101570.33
2018-11-03T08:00:57.201Z,101562.80
2018-11-03T08:03:24.706Z,101562.81
2018-11-03T08:05:52.258Z,101561.42
2018-11-03T08:08:19.823Z,101561.76
2018-11-03T08:10:47.309Z,101564.45
2018-11-03T08:13:14.753Z,101570.58
2018-11-03T08:15:42.279Z,101576.89
2018-11-03T08:18:09.705Z,101573.54
2018-11-03T08:20:37.146Z,101578.72
2018-11-03T08:23:04.589Z,101578.97
2018-11-03T08:25:32.041Z,101578.56
2018-11-03T08:27:59.485Z,101584.14
2018-11-03T08:30:26.929Z,101579.72
2018-11-03T08:32:54.423Z,101574.20
2018-11-03T08:35:21.909Z,101571.87
2018-11-03T08:37:49.369Z,101574.86
2018-11-03T08:40:16.790Z,101581.96
2018-11-03T08:42:44.337Z,101584.14
2018-11-03T08:45:12.166Z,101579.11
2018-11-03T08:47:39.627Z,101583.61
2018-11-03T08:50:07.106Z,101585.66
2018-11-03T08:52:34.548Z,101587.45
2018-11-03T08:55:01.998Z,101587.84
2018-11-03T08:57:29.438Z,101581.77
2018-11-03T08:59:57.111Z,101578.09
2018-11-03T09:02:24.332Z,101577.88
2018-11-03T09:04:51.783Z,101577.28
2018-11-03T09:07:19.224Z,101571.22
2018-11-03T09:09:46.679Z,101568.00
2018-11-03T09:12:14.187Z,101567.25
2018-11-03T09:14:41.688Z,101570.47
2018-11-03T09:17:09.126Z,101572.02
2018-11-03T09:19:36.613Z,101567.91
2018-11-03T09:22:04.154Z,101574.62
2018-11-03T09:24:31.606Z,101573.26
2018-11-03T09:26:59.060Z,101576.64
2018-11-03T09:29:26.498Z,101579.47
2018-11-03T09:31:54.028Z,101577.02
2018-11-03T09:34:21.477Z,101575.95
2018-11-03T09:36:48.947Z,101579.73
2018-11-03T09:39:16.566Z,101576.42
2018-11-03T09:41:43.846Z,101571.99
2018-11-03T09:44:11.354Z,101567.94
2018-11-03T09:46:38.838Z,101568.08
2018-11-03T09:49:06.285Z,101575.66
2018-11-03T09:51:33.736Z,101577.17
2018-11-03T09:54:01.182Z,101577.91
2018-11-03T09:56:28.624Z,101587.81
2018-11-03T09:58:56.074Z,101581.31
2018-11-03T10:01:23.494Z,101576.41
2018-11-03T10:03:50.955Z,101575.80
2018-11-03T10:06:18.443Z,101573.97
2018-11-03T10:08:45.870Z,101567.36
2018-11-03T10:11:13.306Z,101568.86
2018-11-03T10:13:40.758Z,101562.52
2018-11-03T10:16:08.351Z,101557.27
2018-11-03T10:18:35.677Z,101555.11
2018-11-03T10:21:03.110Z,101553.92
2018-11-03T10:23:30.547Z,101550.25
2018-11-03T10:25:57.992Z,101550.59
2018-11-03T10:28:25.417Z,101547.05
2018-11-03T10:30:52.931Z,101545.40
2018-11-03T10:33:20.385Z,101541.79
2018-11-03T10:35:47.818Z,101539.54
2018-11-03T10:38:15.253Z,101537.92
2018-11-03T10:40:42.802Z,101540.16
2018-11-03T10:43:10.240Z,101540.42
2018-11-03T10:45:37.716Z,101534.48
2018-11-03T10:48:05.241Z,101533.86
2018-11-03T10:50:32.781Z,101538.58
2018-11-03T10:53:00.239Z,101538.23
2018-11-03T10:55:27.700Z,101535.59
2018-11-03T10:57:55.105Z,101531.27
2018-11-03T11:00:28.081Z,101530.69
2018-11-03T11:03:01.047Z,101527.33
2018-11-03T11:05:33.947Z,101530.73
2018-11-03T11:08:06.879Z,101530.48
2018-11-03T11:10:39.773Z,101534.30
2018-11-03T11:13:09.913Z,101535.23
2018-11-03T11:15:37.405Z,101540.23
2018-11-03T11:18:04.823Z,101531.63
2018-11-03T11:20:32.266Z,101527.41
2018-11-03T11:22:59.714Z,101522.33
2018-11-03T11:25:27.379Z,101520.39
2018-11-03T11:27:54.846Z,101519.06
2018-11-03T11:30:22.307Z,101527.12
2018-11-03T11:32:49.848Z,101525.09
2018-11-03T11:35:17.351Z,101526.11
2018-11-03T11:37:44.968Z,101516.52
2018-11-03T11:40:12.341Z,101522.09
2018-11-03T11:42:39.790Z,101518.05
2018-11-03T11:45:07.263Z,101513.42
2018-11-03T11:47:34.705Z,101510.20
2018-11-03T11:50:02.237Z,101510.83
2018-11-03T11:52:29.672Z,101502.56
2018-11-03T11:54:57.286Z,101502.91
2018-11-03T11:57:24.705Z,101498.13
2018-11-03T11:59:52.182Z,101501.53
2018-11-03T12:02:19.692Z,101498.69
2018-11-03T12:04:47.062Z,101496.77
2018-11-03T12:07:14.534Z,101498.20
2018-11-03T12:09:42.006Z,101501.27
2018-11-03T12:12:09.529Z,101493.70
2018-11-03T12:14:37.096Z,101494.43
2018-11-03T12:17:04.583Z,101486.09
2018-11-03T12:19:31.994Z,101484.79
2018-11-03T12:21:59.450Z,101491.31
2018-11-03T12:24:26.911Z,101478.42
2018-11-03T12:26:54.681Z,101478.09
2018-11-03T12:29:22.145Z,101477.02
2018-11-03T12:31:49.762Z,101464.00
2018-11-03T12:34:17.233Z,101464.94
2018-11-03T12:36:44.671Z,101455.05
2018-11-03T12:39:12.135Z,101466.02
2018-11-03T12:41:39.579Z,101463.34
2018-11-03T12:44:07.064Z,101465.34
2018-11-03T12:46:34.870Z,101455.66
2018-11-03T12:49:02.376Z,101463.24
2018-11-03T12:51:29.907Z,101464.83
2018-11-03T12:53:57.362Z,101455.33
2018-11-03T12:56:24.811Z,101460.06
2018-11-03T12:58:52.271Z,101458.97
2018-11-03T13:01:19.840Z,101454.96
2018-11-03T13:03:47.394Z,101457.07
2018-11-03T13:06:14.884Z,101452.78
2018-11-03T13:08:42.722Z,101448.56
2018-11-03T13:11:10.283Z,101451.28
2018-11-03T13:13:37.733Z,101454.45
2018-11-03T13:16:05.226Z,101449.09
2018-11-03T13:18:32.829Z,101455.34
2018-11-03T13:21:00.253Z,101457.97
2018-11-03T13:23:27.861Z,101456.27
2018-11-03T13:25:55.363Z,101453.11
2018-11-03T13:28:22.799Z,101462.45
2018-11-03T13:30:50.249Z,101459.38
2018-11-03T13:33:17.804Z,101458.20
2018-11-03T13:35:45.270Z,101456.02
2018-11-03T13:38:12.725Z,101456.91
2018-11-03T13:40:40.194Z,101459.75
2018-11-03T13:43:07.631Z,101459.72
2018-11-03T13:45:35.082Z,101465.03
2018-11-03T13:48:02.549Z,101468.43
2018-11-03T13:50:30.000Z,101470.09
2018-11-03T13:52:57.438Z,101470.41
2018-11-03T13:55:25.070Z,101469.66
2018-11-03T13:57:52.517Z,101468.67
2018-11-03T14:00:20.123Z,101466.39
2018-11-03T14:02:48.398Z,101459.84
2018-11-03T14:05:15.833Z,101463.06
2018-11-03T14:07:43.276Z,101465.23
2018-11-03T14:10:12.029Z,101456.73
2018-11-03T14:12:39.507Z,101456.03
2018-11-03T14:15:07.127Z,101453.44
2018-11-03T14:17:34.665Z,101449.33
2018-11-03T14:20:02.121Z,101442.45
2018-11-03T14:22:29.560Z,101442.38
2018-11-03T14:24:57.067Z,101444.95
2018-11-03T14:27:24.510Z,101446.39
2018-11-03T14:29:51.967Z,101437.05
2018-11-03T14:32:19.421Z,101442.67
2018-11-03T14:34:46.905Z,101439.70
2018-11-03T14:37:14.353Z,101440.66
2018-11-03T14:39:41.794Z,101442.17
2018-11-03T14:42:09.297Z,101438.41
2018-11-03T14:44:36.738Z,101440.62
2018-11-03T14:47:04.201Z,101442.91
2018-11-03T14:49:31.782Z,101445.92
2018-11-03T14:51:59.317Z,101447.16
2018-11-03T14:54:26.787Z,101447.35
2018-11-03T14:56:54.238Z,101450.68
2018-11-03T14:59:21.685Z,101449.88
2018-11-03T15:01:49.131Z,101447.84
2018-11-03T15:04:16.593Z,101449.34
2018-11-03T15:06:44.038Z,101442.30
2018-11-03T15:09:11.497Z,101444.23
2018-11-03T15:11:38.982Z,101443.04
2018-11-03T15:14:07.319Z,101444.34
2018-11-03T15:16:34.580Z,101439.23
2018-11-03T15:19:02.086Z,101434.89
2018-11-03T15:21:29.550Z,101434.06
2018-11-03T15:23:56.995Z,101437.67
2018-11-03T15:26:24.490Z,101440.89
2018-11-03T15:28:51.978Z,101447.96
2018-11-03T15:31:19.446Z,101446.11
2018-11-03T15:33:46.882Z,101438.13
2018-11-03T15:36:14.340Z,101441.19
2018-11-03T15:38:41.771Z,101444.63
2018-11-03T15:41:09.230Z,101450.07
2018-11-03T15:43:36.670Z,101440.44
2018-11-03T15:46:04.106Z,101447.26
2018-11-03T15:48:31.601Z,101447.83
2018-11-03T15:50:59.032Z,101446.66
2018-11-03T15:53:26.465Z,101443.88
2018-11-03T15:55:53.916Z,101442.23
2018-11-03T15:58:21.366Z,101447.90
2018-11-03T16:00:48.815Z,101448.03
2018-11-03T16:03:16.514Z,101445.52
2018-11-03T16:05:43.959Z,101445.72
2018-11-03T16:08:11.409Z,101448.32
2018-11-03T16:10:38.902Z,101445.25
2018-11-03T16:13:06.342Z,101444.95
2018-11-03T16:15:33.791Z,101445.12
2018-11-03T16:18:01.239Z,101445.09
2018-11-03T16:20:28.961Z,101436.73
2018-11-03T16:22:56.439Z,101441.21
2018-11-03T16:25:23.937Z,101441.97
2018-11-03T16:27:51.525Z,101444.40
2018-11-03T16:30:19.585Z,101443.59
2018-11-03T16:32:47.153Z,101439.22
2018-11-03T16:35:14.541Z,101443.54
2018-11-03T16:37:42.326Z,101438.13
2018-11-03T16:40:11.310Z,101437.06
2018-11-03T16:42:38.766Z,101442.30
2018-11-03T16:45:06.752Z,101440.57
2018-11-03T16:47:34.373Z,101438.59
2018-11-03T16:50:01.826Z,101433.16
2018-11-03T16:52:29.321Z,101432.97
2018-11-03T16:54:56.704Z,101428.78
2018-11-03T16:57:24.232Z,101426.50
2018-11-03T16:59:51.663Z,101428.52
2018-11-03T17:02:19.106Z,101428.52
2018-11-03T17:04:47.256Z,101432.34
2018-11-03T17:07:14.706Z,101425.80
2018-11-03T17:09:42.143Z,101424.17
2018-11-03T17:12:09.590Z,101421.08
2018-11-03T17:14:37.043Z,101421.48
2018-11-03T17:17:04.543Z,101415.42
2018-11-03T17:19:32.102Z,101424.08
2018-11-03T17:21:59.564Z,101419.89
2018-11-03T17:24:27.010Z,101423.80
2018-11-03T17:26:54.481Z,101411.88
2018-11-03T17:29:21.934Z,101416.86
2018-11-03T17:31:49.387Z,101415.63
2018-11-03T17:34:16.953Z,101417.06
2018-11-03T17:36:44.391Z,101411.58
2018-11-03T17:39:12.360Z,101408.19
2018-11-03T17:41:39.837Z,101401.91
2018-11-03T17:44:07.339Z,101405.12
2018-11-03T17:46:34.962Z,101407.75
2018-11-03T17:49:02.402Z,101400.98
2018-11-03T17:51:29.869Z,101401.11
2018-11-03T17:53:57.329Z,101411.06
2018-11-03T17:56:24.766Z,101394.02
2018-11-03T17:58:52.230Z,101395.84
2018-11-03T18:01:19.786Z,101403.11
2018-11-03T18:03:47.145Z,101395.92
2018-11-03T18:06:14.584Z,101391.49
2018-11-03T18:08:42.010Z,101389.13
2018-11-03T18:11:09.447Z,101394.19
2018-11-03T18:13:37.267Z,101383.89
2018-11-03T18:16:04.711Z,101380.31
2018-11-03T18:18:32.222Z,101381.90
2018-11-03T18:20:59.655Z,101383.33
2018-11-03T18:23:27.669Z,101375.40
2018-11-03T18:25:55.154Z,101379.64
2018-11-03T18:28:22.611Z,101376.78
2018-11-03T18:30:50.074Z,101375.56
2018-11-03T18:33:17.537Z,101366.96
2018-11-03T18:35:44.885Z,101371.35
2018-11-03T18:38:12.352Z,101366.37
2018-11-03T18:40:39.771Z,101358.73
2018-11-03T18:43:07.301Z,101364.73
2018-11-03T18:45:34.739Z,101367.39
2018-11-03T18:48:02.193Z,101360.66
2018-11-03T18:50:29.638Z,101363.65
2018-11-03T18:52:57.159Z,101364.07
2018-11-03T18:55:24.641Z,101355.95
2018-11-03T18:57:52.045Z,101358.00
2018-11-03T19:00:19.546Z,101354.39
2018-11-03T19:02:46.982Z,101347.71
2018-11-03T19:05:14.429Z,101348.60
2018-11-03T19:07:41.878Z,101347.42
2018-11-03T19:10:09.787Z,101344.90
2018-11-03T19:12:37.324Z,101351.92
2018-11-03T19:15:04.778Z,101344.62
2018-11-03T19:17:32.216Z,101346.04
2018-11-03T19:19:59.665Z,101346.88
2018-11-03T19:22:27.094Z,101345.70
2018-11-03T19:24:54.898Z,101339.23
2018-11-03T19:27:22.337Z,101343.53
2018-11-03T19:29:49.940Z,101347.28
2018-11-03T19:32:17.538Z,101341.02
2018-11-03T19:34:44.943Z,101339.59
2018-11-03T19:37:12.393Z,101337.34
2018-11-03T19:39:39.849Z,101332.92
2018-11-03T19:42:07.305Z,101339.38
2018-11-03T19:44:34.769Z,101338.30
2018-11-03T19:47:02.210Z,101334.08
2018-11-03T19:49:29.691Z,101333.75
2018-11-03T19:51:57.158Z,101338.03
2018-11-03T19:54:24.618Z,101334.21
2018-11-03T19:56:52.054Z,101331.63
2018-11-03T19:59:19.490Z,101330.19
2018-11-03T20:01:46.926Z,101329.98
2018-11-03T20:04:14.362Z,101333.67
2018-11-03T20:06:41.806Z,101331.14
2018-11-03T20:09:09.342Z,101330.05
2018-11-03T20:11:36.796Z,101327.01
2018-11-03T20:14:04.456Z,101329.17
2018-11-03T20:16:31.926Z,101321.41
2018-11-03T20:18:59.412Z,101325.98
2018-11-03T20:21:26.914Z,101320.58
2018-11-03T20:23:54.362Z,101315.29
2018-11-03T20:26:21.946Z,101312.63
2018-11-03T20:28:49.313Z,101308.81
2018-11-03T20:31:16.758Z,101306.91
2018-11-03T20:33:44.202Z,101306.77
2018-11-03T20:36:11.646Z,101300.69
2018-11-03T20:38:39.099Z,101300.44
2018-11-03T20:41:06.542Z,101293.20
2018-11-03T20:43:33.986Z,101298.03
2018-11-03T20:46:01.430Z,101298.44
2018-11-03T20:48:28.866Z,101307.91
2018-11-03T20:51:01.590Z,101298.72
2018-11-03T20:53:29.030Z,101291.58
2018-11-03T20:55:56.472Z,101293.36
2018-11-03T20:58:23.927Z,101290.95
2018-11-03T21:00:51.440Z,101285.52
2018-11-03T21:03:18.862Z,101286.05
2018-11-03T21:05:46.302Z,101285.36
2018-11-03T21:08:13.859Z,101279.50
2018-11-03T21:10:41.223Z,101279.50
2018-11-03T21:13:08.666Z,101284.02
2018-11-03T21:15:36.118Z,101282.84
2018-11-03T21:18:03.817Z,101273.52
2018-11-03T21:20:31.322Z,101276.42
2018-11-03T21:22:58.758Z,101267.64
2018-11-03T21:25:26.206Z,101270.03
2018-11-03T21:27:53.647Z,101264.45
2018-11-03T21:30:21.082Z,101265.42
2018-11-03T21:32:48.630Z,101262.88
2018-11-03T21:35:16.053Z,101258.38
2018-11-03T21:37:43.498Z,101255.27
2018-11-03T21:40:11.011Z,101253.84
2018-11-03T21:42:38.582Z,101239.25
2018-11-03T21:45:06.022Z,101234.35
2018-11-03T21:47:33.471Z,101229.63
2018-11-03T21:50:00.909Z,101233.66
2018-11-03T21:52:28.477Z,101235.48
2018-11-03T21:54:55.926Z,101230.31
2018-11-03T21:57:23.385Z,101231.23
2018-11-03T21:59:50.837Z,101226.46
2018-11-03T22:02:18.398Z,101230.39
2018-11-03T22:04:46.013Z,101231.97
2018-11-03T22:07:13.459Z,101218.74
2018-11-03T22:09:40.902Z,101217.45
2018-11-03T22:12:08.348Z,101209.84
2018-11-03T22:14:35.803Z,101203.65
2018-11-03T22:17:03.253Z,101207.33
2018-11-03T22:19:30.688Z,101197.59
2018-11-03T22:21:58.134Z,101195.81
2018-11-03T22:24:25.570Z,101201.34
2018-11-03T22:26:53.015Z,101189.42
2018-11-03T22:29:20.465Z,101181.86
2018-11-03T22:31:47.930Z,101179.75
2018-11-03T22:34:15.430Z,101190.43
2018-11-03T22:36:42.869Z,101183.23
2018-11-03T22:39:10.301Z,101176.56
2018-11-03T22:41:38.138Z,101178.81
2018-11-03T22:44:05.581Z,101181.83
2018-11-03T22:46:33.062Z,101170.31
2018-11-03T22:49:01.206Z,101168.59
2018-11-03T22:51:28.748Z,101168.13
2018-11-03T22:53:56.109Z,101163.21
2018-11-03T22:56:23.630Z,101153.22
2018-11-03T22:58:51.074Z,101155.98
2018-11-03T23:01:18.542Z,101156.34
2018-11-03T23:03:45.989Z,101157.51
2018-11-03T23:06:13.453Z,101150.11
2018-11-03T23:08:40.886Z,101141.98
2018-11-03T23:11:08.329Z,101141.30
2018-11-03T23:13:35.769Z,101140.69
2018-11-03T23:16:03.207Z,101140.72
2018-11-03T23:18:30.646Z,101138.47
2018-11-03T23:20:58.094Z,101137.23
2018-11-03T23:23:25.549Z,101131.57
2018-11-03T23:25:53.012Z,101133.96
2018-11-03T23:28:20.455Z,101132.95
2018-11-03T23:30:47.946Z,101137.24
2018-11-03T23:33:15.406Z,101129.55
2018-11-03T23:35:42.846Z,101128.73
2018-11-03T23:38:10.343Z,101126.62
2018-11-03T23:40:37.774Z,101121.39
2018-11-03T23:43:05.331Z,101110.16
2018-11-03T23:45:32.870Z,101107.70
2018-11-03T23:48:00.306Z,101110.76
2018-11-03T23:50:27.766Z,101099.41
2018-11-03T23:52:55.189Z,101108.39
2018-11-03T23:55:22.627Z,101104.63
2018-11-03T23:57:50.078Z,101102.00
